MUC863 EDNX-LOWS
Flight info
| Callsign | MUC863 |
|---|---|
| Flight time | 0h 54m |
| Altitude | 2500 |
| Route | VFR |
| Aircraft | C172/L-VGD/A |
Departure
| Time | 2026-05-07 07:51 |
|---|---|
| Airport | Schleissheim Airfield (EDNX) |
Arrival
| Time | 2026-05-07 08:45 |
|---|---|
| Airport | Salzburg Airport (LOWS) |
| Time | Latitude | Longitude | Altitude | Speed | Heading |
|---|---|---|---|---|---|
| 2026-05-07 07:40 | 48.23625 | 11.55388 | 1606 ft | 0 kts | 223° |
| 2026-05-07 07:46 | 48.23625 | 11.55387 | 1606 ft | 1 kts | 223° |
| 2026-05-07 07:46 | 48.23606 | 11.55356 | 1607 ft | 9 kts | 230° |
| 2026-05-07 07:46 | 48.23603 | 11.55255 | 1612 ft | 12 kts | 305° |
| 2026-05-07 07:47 | 48.23638 | 11.55191 | 1607 ft | 3 kts | 334° |
| 2026-05-07 07:47 | 48.23639 | 11.55190 | 1607 ft | 0 kts | 336° |
| 2026-05-07 07:47 | 48.23646 | 11.55186 | 1607 ft | 0 kts | 346° |
| 2026-05-07 07:47 | 48.23665 | 11.55175 | 1606 ft | 5 kts | 338° |
| 2026-05-07 07:48 | 48.23715 | 11.55156 | 1605 ft | 10 kts | 352° |
| 2026-05-07 07:48 | 48.23787 | 11.55169 | 1605 ft | 12 kts | 68° |
| 2026-05-07 07:48 | 48.23809 | 11.55291 | 1604 ft | 14 kts | 74° |
| 2026-05-07 07:48 | 48.23841 | 11.55461 | 1604 ft | 18 kts | 75° |
| 2026-05-07 07:49 | 48.23874 | 11.55639 | 1603 ft | 17 kts | 72° |
| 2026-05-07 07:49 | 48.23911 | 11.55819 | 1604 ft | 20 kts | 76° |
| 2026-05-07 07:49 | 48.23950 | 11.56029 | 1607 ft | 23 kts | 74° |
| 2026-05-07 07:49 | 48.23996 | 11.56266 | 1606 ft | 23 kts | 75° |
| 2026-05-07 07:50 | 48.23993 | 11.56367 | 1606 ft | 0 kts | 118° |
| 2026-05-07 07:50 | 48.23992 | 11.56377 | 1606 ft | 3 kts | 70° |
| 2026-05-07 07:50 | 48.23998 | 11.56351 | 1606 ft | 7 kts | 253° |
| 2026-05-07 07:50 | 48.23937 | 11.56018 | 1615 ft | 55 kts | 259° |
| 2026-05-07 07:51 | 48.23841 | 11.55393 | 1786 ft | 68 kts | 261° |
| 2026-05-07 07:51 | 48.23737 | 11.54680 | 2025 ft | 65 kts | 261° |
| 2026-05-07 07:51 | 48.23664 | 11.54023 | 2204 ft | 65 kts | 260° |
| 2026-05-07 07:51 | 48.23576 | 11.53367 | 2421 ft | 65 kts | 267° |
| 2026-05-07 07:52 | 48.23479 | 11.52686 | 2658 ft | 65 kts | 259° |
| 2026-05-07 07:52 | 48.23337 | 11.52057 | 2784 ft | 65 kts | 260° |
| 2026-05-07 07:52 | 48.23213 | 11.51403 | 2837 ft | 67 kts | 256° |
| 2026-05-07 07:52 | 48.23047 | 11.50695 | 2894 ft | 78 kts | 256° |
| 2026-05-07 07:53 | 48.22700 | 11.49972 | 2820 ft | 96 kts | 218° |
| 2026-05-07 07:53 | 48.22040 | 11.49707 | 2858 ft | 100 kts | 200° |
| 2026-05-07 07:53 | 48.21403 | 11.49541 | 3057 ft | 84 kts | 207° |
| 2026-05-07 07:53 | 48.20753 | 11.49307 | 2942 ft | 104 kts | 203° |
| 2026-05-07 07:54 | 48.20011 | 11.49123 | 2903 ft | 108 kts | 200° |
| 2026-05-07 07:54 | 48.19524 | 11.49001 | 2943 ft | 105 kts | 200° |
| 2026-05-07 07:54 | 48.18816 | 11.48774 | 2914 ft | 103 kts | 204° |
| 2026-05-07 07:54 | 48.18142 | 11.48514 | 2907 ft | 98 kts | 205° |
| 2026-05-07 07:55 | 48.17501 | 11.48232 | 2903 ft | 94 kts | 210° |
| 2026-05-07 07:55 | 48.16924 | 11.47832 | 2898 ft | 90 kts | 212° |
| 2026-05-07 07:55 | 48.16375 | 11.47432 | 2899 ft | 85 kts | 220° |
| 2026-05-07 07:55 | 48.15862 | 11.47006 | 2894 ft | 83 kts | 220° |
| 2026-05-07 07:56 | 48.15348 | 11.46597 | 2894 ft | 86 kts | 213° |
| 2026-05-07 07:56 | 48.14783 | 11.46368 | 2999 ft | 80 kts | 207° |
| 2026-05-07 07:56 | 48.14243 | 11.46195 | 3124 ft | 82 kts | 206° |
| 2026-05-07 07:56 | 48.13666 | 11.45979 | 3277 ft | 89 kts | 206° |
| 2026-05-07 07:57 | 48.13052 | 11.45713 | 3416 ft | 95 kts | 206° |
| 2026-05-07 07:57 | 48.12399 | 11.45417 | 3488 ft | 102 kts | 207° |
| 2026-05-07 07:57 | 48.11724 | 11.45104 | 3486 ft | 102 kts | 206° |
| 2026-05-07 07:57 | 48.11063 | 11.44797 | 3483 ft | 98 kts | 206° |
| 2026-05-07 07:58 | 48.10425 | 11.44512 | 3481 ft | 94 kts | 206° |
| 2026-05-07 07:58 | 48.09810 | 11.44242 | 3487 ft | 92 kts | 211° |
| 2026-05-07 07:58 | 48.09191 | 11.43922 | 3496 ft | 97 kts | 210° |
| 2026-05-07 07:58 | 48.08551 | 11.43554 | 3501 ft | 100 kts | 210° |
| 2026-05-07 07:59 | 48.07903 | 11.43182 | 3497 ft | 100 kts | 210° |
| 2026-05-07 07:59 | 48.07258 | 11.42811 | 3503 ft | 99 kts | 211° |
| 2026-05-07 07:59 | 48.06604 | 11.42438 | 3501 ft | 101 kts | 211° |
| 2026-05-07 07:59 | 48.05944 | 11.42062 | 3504 ft | 101 kts | 211° |
| 2026-05-07 08:00 | 48.05281 | 11.41705 | 3498 ft | 101 kts | 210° |
| 2026-05-07 08:00 | 48.04616 | 11.41361 | 3498 ft | 102 kts | 210° |
| 2026-05-07 08:00 | 48.03947 | 11.41026 | 3492 ft | 101 kts | 210° |
| 2026-05-07 08:00 | 48.03282 | 11.40704 | 3491 ft | 100 kts | 210° |
| 2026-05-07 08:01 | 48.02619 | 11.40376 | 3494 ft | 101 kts | 210° |
| 2026-05-07 08:01 | 48.01950 | 11.40077 | 3487 ft | 100 kts | 205° |
| 2026-05-07 08:01 | 48.01281 | 11.39820 | 3490 ft | 100 kts | 206° |
| 2026-05-07 08:01 | 48.00597 | 11.39549 | 3494 ft | 102 kts | 206° |
| 2026-05-07 08:02 | 47.99912 | 11.39267 | 3499 ft | 102 kts | 207° |
| 2026-05-07 08:02 | 47.99232 | 11.38984 | 3492 ft | 100 kts | 206° |
| 2026-05-07 08:02 | 47.98554 | 11.38715 | 3499 ft | 102 kts | 206° |
| 2026-05-07 08:02 | 47.97854 | 11.38440 | 3498 ft | 105 kts | 206° |
| 2026-05-07 08:03 | 47.97142 | 11.38185 | 3494 ft | 107 kts | 198° |
| 2026-05-07 08:03 | 47.96372 | 11.38301 | 3488 ft | 113 kts | 184° |
| 2026-05-07 08:03 | 47.95599 | 11.38476 | 3482 ft | 112 kts | 183° |
| 2026-05-07 08:03 | 47.94835 | 11.38657 | 3482 ft | 112 kts | 183° |
| 2026-05-07 08:04 | 47.94080 | 11.38838 | 3481 ft | 107 kts | 183° |
| 2026-05-07 08:04 | 47.93366 | 11.38895 | 3480 ft | 99 kts | 195° |
| 2026-05-07 08:04 | 47.92683 | 11.38851 | 3479 ft | 97 kts | 195° |
| 2026-05-07 08:04 | 47.92006 | 11.38819 | 3480 ft | 98 kts | 196° |
| 2026-05-07 08:05 | 47.91329 | 11.38809 | 3482 ft | 96 kts | 196° |
| 2026-05-07 08:05 | 47.90659 | 11.38811 | 3483 ft | 96 kts | 195° |
| 2026-05-07 08:05 | 47.89993 | 11.38805 | 3483 ft | 96 kts | 195° |
| 2026-05-07 08:05 | 47.89325 | 11.38800 | 3478 ft | 95 kts | 196° |
| 2026-05-07 08:06 | 47.88676 | 11.38807 | 3480 ft | 91 kts | 195° |
| 2026-05-07 08:06 | 47.88046 | 11.38819 | 3480 ft | 90 kts | 195° |
| 2026-05-07 08:06 | 47.87419 | 11.38891 | 3469 ft | 99 kts | 168° |
| 2026-05-07 08:06 | 47.86861 | 11.39574 | 3486 ft | 104 kts | 153° |
| 2026-05-07 08:07 | 47.86282 | 11.40234 | 3486 ft | 104 kts | 151° |
| 2026-05-07 08:07 | 47.85706 | 11.40854 | 3486 ft | 102 kts | 152° |
| 2026-05-07 08:07 | 47.85129 | 11.41506 | 3489 ft | 105 kts | 152° |
| 2026-05-07 08:07 | 47.84539 | 11.42166 | 3492 ft | 108 kts | 152° |
| 2026-05-07 08:08 | 47.83932 | 11.42848 | 3487 ft | 111 kts | 145° |
| 2026-05-07 08:08 | 47.83521 | 11.43854 | 3484 ft | 114 kts | 124° |
| 2026-05-07 08:08 | 47.83136 | 11.44891 | 3478 ft | 115 kts | 124° |
| 2026-05-07 08:08 | 47.82765 | 11.45947 | 3479 ft | 115 kts | 124° |
| 2026-05-07 08:09 | 47.82388 | 11.46991 | 3474 ft | 115 kts | 124° |
| 2026-05-07 08:09 | 47.81994 | 11.48050 | 3481 ft | 118 kts | 123° |
| 2026-05-07 08:09 | 47.81854 | 11.49216 | 3475 ft | 119 kts | 70° |
| 2026-05-07 08:09 | 47.82451 | 11.49938 | 3475 ft | 112 kts | 3° |
| 2026-05-07 08:10 | 47.83099 | 11.49487 | 3477 ft | 105 kts | 306° |
| 2026-05-07 08:10 | 47.83552 | 11.48647 | 3483 ft | 105 kts | 307° |
| 2026-05-07 08:10 | 47.84001 | 11.47792 | 3489 ft | 104 kts | 305° |
| 2026-05-07 08:10 | 47.84462 | 11.46962 | 3491 ft | 104 kts | 305° |
| 2026-05-07 08:11 | 47.84933 | 11.46144 | 3488 ft | 102 kts | 306° |
| 2026-05-07 08:11 | 47.85382 | 11.45382 | 3483 ft | 98 kts | 306° |
| 2026-05-07 08:11 | 47.85578 | 11.44518 | 3477 ft | 91 kts | 251° |
| 2026-05-07 08:11 | 47.85018 | 11.44078 | 3472 ft | 106 kts | 179° |
| 2026-05-07 08:12 | 47.84463 | 11.44827 | 3476 ft | 120 kts | 109° |
| 2026-05-07 08:12 | 47.84418 | 11.46066 | 3485 ft | 120 kts | 92° |
| 2026-05-07 08:12 | 47.84407 | 11.47283 | 3481 ft | 116 kts | 90° |
| 2026-05-07 08:12 | 47.84403 | 11.48489 | 3490 ft | 116 kts | 91° |
| 2026-05-07 08:13 | 47.84403 | 11.49689 | 3479 ft | 116 kts | 91° |
| 2026-05-07 08:13 | 47.84407 | 11.50886 | 3477 ft | 115 kts | 91° |
| 2026-05-07 08:13 | 47.84413 | 11.52051 | 3477 ft | 112 kts | 91° |
| 2026-05-07 08:13 | 47.84414 | 11.53215 | 3490 ft | 115 kts | 91° |
| 2026-05-07 08:14 | 47.84403 | 11.54408 | 3484 ft | 116 kts | 92° |
| 2026-05-07 08:14 | 47.84412 | 11.55606 | 3489 ft | 115 kts | 90° |
| 2026-05-07 08:14 | 47.84400 | 11.56795 | 3490 ft | 116 kts | 92° |
| 2026-05-07 08:14 | 47.84395 | 11.58001 | 3483 ft | 117 kts | 91° |
| 2026-05-07 08:15 | 47.84399 | 11.59199 | 3485 ft | 117 kts | 90° |
| 2026-05-07 08:15 | 47.84404 | 11.60427 | 3481 ft | 119 kts | 91° |
| 2026-05-07 08:15 | 47.84411 | 11.61642 | 3482 ft | 117 kts | 91° |
| 2026-05-07 08:15 | 47.84431 | 11.62842 | 3477 ft | 115 kts | 91° |
| 2026-05-07 08:16 | 47.84433 | 11.64021 | 3477 ft | 113 kts | 91° |
| 2026-05-07 08:16 | 47.84441 | 11.65185 | 3473 ft | 112 kts | 91° |
| 2026-05-07 08:16 | 47.84456 | 11.66363 | 3485 ft | 117 kts | 91° |
| 2026-05-07 08:16 | 47.84464 | 11.67580 | 3479 ft | 118 kts | 91° |
| 2026-05-07 08:17 | 47.84474 | 11.68798 | 3478 ft | 118 kts | 91° |
| 2026-05-07 08:17 | 47.84483 | 11.69994 | 3478 ft | 114 kts | 91° |
| 2026-05-07 08:17 | 47.84681 | 11.71084 | 3464 ft | 108 kts | 37° |
| 2026-05-07 08:17 | 47.85311 | 11.71195 | 3484 ft | 91 kts | 317° |
| 2026-05-07 08:18 | 47.85447 | 11.70382 | 3490 ft | 91 kts | 246° |
| 2026-05-07 08:18 | 47.84842 | 11.70012 | 3486 ft | 112 kts | 178° |
| 2026-05-07 08:18 | 47.84251 | 11.70828 | 3471 ft | 126 kts | 115° |
| 2026-05-07 08:18 | 47.84042 | 11.72061 | 3468 ft | 121 kts | 98° |
| 2026-05-07 08:19 | 47.84053 | 11.73300 | 3472 ft | 118 kts | 76° |
| 2026-05-07 08:19 | 47.84373 | 11.74392 | 3480 ft | 115 kts | 63° |
| 2026-05-07 08:19 | 47.84694 | 11.75488 | 3479 ft | 115 kts | 63° |
| 2026-05-07 08:19 | 47.85032 | 11.76571 | 3487 ft | 115 kts | 62° |
| 2026-05-07 08:20 | 47.85382 | 11.77657 | 3491 ft | 117 kts | 62° |
| 2026-05-07 08:20 | 47.85728 | 11.78728 | 3481 ft | 112 kts | 62° |
| 2026-05-07 08:20 | 47.86048 | 11.79794 | 3492 ft | 117 kts | 62° |
| 2026-05-07 08:20 | 47.86386 | 11.80929 | 3490 ft | 121 kts | 63° |
| 2026-05-07 08:21 | 47.86751 | 11.82067 | 3492 ft | 123 kts | 59° |
| 2026-05-07 08:21 | 47.87140 | 11.83165 | 3484 ft | 117 kts | 58° |
| 2026-05-07 08:21 | 47.87553 | 11.84191 | 3481 ft | 115 kts | 57° |
| 2026-05-07 08:21 | 47.87972 | 11.85213 | 3481 ft | 115 kts | 53° |
| 2026-05-07 08:22 | 47.88399 | 11.86233 | 3478 ft | 117 kts | 53° |
| 2026-05-07 08:22 | 47.88823 | 11.87267 | 3482 ft | 119 kts | 55° |
| 2026-05-07 08:22 | 47.89248 | 11.88343 | 3489 ft | 122 kts | 56° |
| 2026-05-07 08:22 | 47.89661 | 11.89477 | 3486 ft | 125 kts | 69° |
| 2026-05-07 08:23 | 47.89839 | 11.90741 | 3492 ft | 124 kts | 78° |
| 2026-05-07 08:23 | 47.89778 | 11.92006 | 3490 ft | 124 kts | 99° |
| 2026-05-07 08:23 | 47.89673 | 11.93288 | 3502 ft | 126 kts | 99° |
| 2026-05-07 08:23 | 47.89568 | 11.94606 | 3496 ft | 131 kts | 99° |
| 2026-05-07 08:24 | 47.89460 | 11.95943 | 3498 ft | 134 kts | 100° |
| 2026-05-07 08:24 | 47.89357 | 11.97322 | 3500 ft | 134 kts | 99° |
| 2026-05-07 08:24 | 47.89255 | 11.98708 | 3497 ft | 135 kts | 99° |
| 2026-05-07 08:24 | 47.89147 | 12.00102 | 3496 ft | 135 kts | 99° |
| 2026-05-07 08:25 | 47.89038 | 12.01486 | 3495 ft | 134 kts | 99° |
| 2026-05-07 08:25 | 47.88936 | 12.02858 | 3492 ft | 132 kts | 98° |
| 2026-05-07 08:25 | 47.88822 | 12.04215 | 3491 ft | 132 kts | 99° |
| 2026-05-07 08:25 | 47.88711 | 12.05570 | 3493 ft | 132 kts | 99° |
| 2026-05-07 08:26 | 47.88103 | 12.07984 | 3495 ft | 122 kts | 164° |
| 2026-05-07 08:26 | 47.87381 | 12.07828 | 3522 ft | 103 kts | 231° |
| 2026-05-07 08:26 | 47.87299 | 12.06877 | 3563 ft | 100 kts | 296° |
| 2026-05-07 08:27 | 47.87915 | 12.06380 | 3648 ft | 113 kts | 352° |
| 2026-05-07 08:27 | 47.88633 | 12.06829 | 3849 ft | 118 kts | 37° |
| 2026-05-07 08:27 | 47.89098 | 12.07899 | 3956 ft | 127 kts | 66° |
| 2026-05-07 08:27 | 47.89326 | 12.09134 | 4183 ft | 123 kts | 76° |
| 2026-05-07 08:28 | 47.89401 | 12.10405 | 4307 ft | 126 kts | 111° |
| 2026-05-07 08:28 | 47.88959 | 12.11650 | 4104 ft | 146 kts | 124° |
| 2026-05-07 08:28 | 47.88443 | 12.13011 | 3868 ft | 154 kts | 125° |
| 2026-05-07 08:28 | 47.87908 | 12.14394 | 3616 ft | 155 kts | 124° |
| 2026-05-07 08:29 | 47.87368 | 12.15770 | 3505 ft | 150 kts | 125° |
| 2026-05-07 08:29 | 47.86858 | 12.17095 | 3502 ft | 146 kts | 125° |
| 2026-05-07 08:29 | 47.86358 | 12.18400 | 3502 ft | 144 kts | 126° |
| 2026-05-07 08:29 | 47.85846 | 12.19676 | 3501 ft | 143 kts | 126° |
| 2026-05-07 08:30 | 47.85436 | 12.21030 | 3488 ft | 146 kts | 106° |
| 2026-05-07 08:30 | 47.85241 | 12.22519 | 3500 ft | 147 kts | 105° |
| 2026-05-07 08:30 | 47.85033 | 12.24033 | 3504 ft | 151 kts | 105° |
| 2026-05-07 08:30 | 47.84832 | 12.25560 | 3503 ft | 149 kts | 104° |
| 2026-05-07 08:31 | 47.84632 | 12.27032 | 3489 ft | 146 kts | 104° |
| 2026-05-07 08:31 | 47.84443 | 12.28505 | 3465 ft | 139 kts | 104° |
| 2026-05-07 08:31 | 47.84255 | 12.29889 | 3495 ft | 138 kts | 105° |
| 2026-05-07 08:31 | 47.84074 | 12.31293 | 3496 ft | 138 kts | 104° |
| 2026-05-07 08:32 | 47.83893 | 12.32693 | 3497 ft | 139 kts | 104° |
| 2026-05-07 08:32 | 47.83710 | 12.34106 | 3498 ft | 139 kts | 104° |
| 2026-05-07 08:32 | 47.83525 | 12.35507 | 3502 ft | 135 kts | 104° |
| 2026-05-07 08:32 | 47.83342 | 12.36884 | 3501 ft | 137 kts | 104° |
| 2026-05-07 08:33 | 47.83157 | 12.38278 | 3508 ft | 138 kts | 104° |
| 2026-05-07 08:33 | 47.83077 | 12.39709 | 3507 ft | 139 kts | 94° |
| 2026-05-07 08:33 | 47.83037 | 12.41154 | 3506 ft | 140 kts | 94° |
| 2026-05-07 08:33 | 47.82998 | 12.42588 | 3501 ft | 138 kts | 95° |
| 2026-05-07 08:34 | 47.82959 | 12.44022 | 3502 ft | 140 kts | 95° |
| 2026-05-07 08:34 | 47.82919 | 12.45478 | 3508 ft | 142 kts | 95° |
| 2026-05-07 08:34 | 47.82879 | 12.46950 | 3508 ft | 143 kts | 94° |
| 2026-05-07 08:34 | 47.82837 | 12.48417 | 3508 ft | 141 kts | 95° |
| 2026-05-07 08:35 | 47.82801 | 12.49872 | 3501 ft | 141 kts | 94° |
| 2026-05-07 08:35 | 47.82766 | 12.51343 | 3422 ft | 144 kts | 95° |
| 2026-05-07 08:35 | 47.82730 | 12.52819 | 3412 ft | 142 kts | 95° |
| 2026-05-07 08:35 | 47.82694 | 12.54270 | 3411 ft | 140 kts | 94° |
| 2026-05-07 08:36 | 47.82661 | 12.55718 | 3410 ft | 140 kts | 95° |
| 2026-05-07 08:36 | 47.82635 | 12.57177 | 3413 ft | 142 kts | 94° |
| 2026-05-07 08:36 | 47.82601 | 12.58632 | 3408 ft | 140 kts | 95° |
| 2026-05-07 08:36 | 47.82557 | 12.60077 | 3413 ft | 141 kts | 94° |
| 2026-05-07 08:37 | 47.82515 | 12.61539 | 3415 ft | 142 kts | 95° |
| 2026-05-07 08:37 | 47.82480 | 12.63021 | 3410 ft | 144 kts | 95° |
| 2026-05-07 08:37 | 47.82437 | 12.64501 | 3409 ft | 142 kts | 95° |
| 2026-05-07 08:37 | 47.82389 | 12.65983 | 3414 ft | 144 kts | 95° |
| 2026-05-07 08:38 | 47.82373 | 12.67466 | 3409 ft | 143 kts | 90° |
| 2026-05-07 08:38 | 47.82409 | 12.68957 | 3409 ft | 145 kts | 89° |
| 2026-05-07 08:38 | 47.82441 | 12.70445 | 3405 ft | 143 kts | 90° |
| 2026-05-07 08:38 | 47.82466 | 12.71911 | 3401 ft | 141 kts | 90° |
| 2026-05-07 08:39 | 47.82504 | 12.73358 | 3401 ft | 140 kts | 89° |
| 2026-05-07 08:39 | 47.82539 | 12.74809 | 3400 ft | 141 kts | 89° |
| 2026-05-07 08:39 | 47.82565 | 12.76270 | 3411 ft | 142 kts | 90° |
| 2026-05-07 08:39 | 47.82603 | 12.77734 | 3419 ft | 141 kts | 90° |
| 2026-05-07 08:40 | 47.82647 | 12.79184 | 3408 ft | 140 kts | 89° |
| 2026-05-07 08:40 | 47.82672 | 12.80621 | 3401 ft | 138 kts | 96° |
| 2026-05-07 08:40 | 47.82551 | 12.81530 | 3401 ft | 133 kts | 113° |
| 2026-05-07 08:40 | 47.82082 | 12.82686 | 3329 ft | 130 kts | 138° |
| 2026-05-07 08:41 | 47.81078 | 12.83580 | 3253 ft | 127 kts | 171° |
| 2026-05-07 08:41 | 47.80245 | 12.83969 | 3161 ft | 132 kts | 146° |
| 2026-05-07 08:41 | 47.79869 | 12.85215 | 3067 ft | 138 kts | 95° |
| 2026-05-07 08:41 | 47.79726 | 12.86622 | 3026 ft | 138 kts | 110° |
| 2026-05-07 08:42 | 47.79487 | 12.88008 | 3031 ft | 138 kts | 107° |
| 2026-05-07 08:42 | 47.79324 | 12.88946 | 3019 ft | 139 kts | 109° |
| 2026-05-07 08:42 | 47.79049 | 12.90310 | 3034 ft | 138 kts | 110° |
| 2026-05-07 08:42 | 47.78778 | 12.91707 | 2999 ft | 145 kts | 110° |
| 2026-05-07 08:43 | 47.78488 | 12.93174 | 2848 ft | 149 kts | 110° |
| 2026-05-07 08:43 | 47.78193 | 12.94637 | 2695 ft | 146 kts | 110° |
| 2026-05-07 08:43 | 47.77769 | 12.95981 | 2584 ft | 140 kts | 125° |
| 2026-05-07 08:43 | 47.77278 | 12.97147 | 2503 ft | 128 kts | 127° |
| 2026-05-07 08:44 | 47.76817 | 12.98263 | 2282 ft | 126 kts | 120° |
| 2026-05-07 08:44 | 47.76574 | 12.99526 | 2071 ft | 126 kts | 96° |
| 2026-05-07 08:44 | 47.76747 | 13.00717 | 1897 ft | 117 kts | 60° |
| 2026-05-07 08:44 | 47.77328 | 13.01473 | 1690 ft | 109 kts | 16° |
| 2026-05-07 08:45 | 47.78004 | 13.01252 | 1500 ft | 99 kts | 331° |
| 2026-05-07 08:45 | 47.78602 | 13.00856 | 1420 ft | 88 kts | 334° |
| 2026-05-07 08:45 | 47.79113 | 13.00525 | 1408 ft | 71 kts | 334° |
| 2026-05-07 08:45 | 47.79486 | 13.00289 | 1413 ft | 43 kts | 335° |
| 2026-05-07 08:46 | 47.79710 | 13.00155 | 1412 ft | 33 kts | 337° |
| 2026-05-07 08:46 | 47.79901 | 13.00034 | 1412 ft | 26 kts | 337° |
| 2026-05-07 08:46 | 47.80052 | 12.99940 | 1413 ft | 21 kts | 338° |
| 2026-05-07 08:46 | 47.80172 | 12.99866 | 1410 ft | 17 kts | 337° |
| 2026-05-07 08:47 | 47.80263 | 12.99754 | 1410 ft | 18 kts | 292° |
| 2026-05-07 08:47 | 47.80240 | 12.99607 | 1413 ft | 15 kts | 211° |
| 2026-05-07 08:47 | 47.80117 | 12.99633 | 1410 ft | 24 kts | 157° |
| 2026-05-07 08:47 | 47.79916 | 12.99757 | 1411 ft | 37 kts | 160° |
| 2026-05-07 08:48 | 47.79704 | 12.99891 | 1410 ft | 30 kts | 156° |
| 2026-05-07 08:48 | 47.79529 | 13.00005 | 1412 ft | 25 kts | 153° |
| 2026-05-07 08:48 | 47.79387 | 13.00081 | 1411 ft | 16 kts | 181° |
| 2026-05-07 08:48 | 47.79332 | 12.99990 | 1413 ft | 11 kts | 245° |
| 2026-05-07 08:49 | 47.79311 | 12.99894 | 1409 ft | 9 kts | 285° |
| 2026-05-07 08:49 | 47.79330 | 12.99824 | 1409 ft | 7 kts | 242° |
| 2026-05-07 08:49 | 47.79310 | 12.99773 | 1409 ft | 4 kts | 246° |